Latest Weather Observations for Dunalley

IDT60901

Issued at 3:01 pm EST Thursday 25 May 2017 (issued every 10 minutes, with the page automatically refreshed every 10 minutes)

About weather observations | Map of Hobart area stations | Latest observations for Hobart area | Other Formats
Station Details ID: 094254 Name: DUNALLEY (STROUD POINT) Lat: -42.90 Lon: 147.79 Height: 12.43 m
Data from the previous 72 hours. | See also: Recent months at Dunalley
Date/Time
EST
Temp
°C
App
Temp
°C
Dew
Point
°C
Rel
Hum
%
Delta-T
°C
Wind Press
QNH
hPa
Press
MSL
hPa
Rain since
9am
mm
Dir  Spd
km/h
Gust
km/h
Spd
kts
Gust
kts
25/03:00pm 14.0 10.8 8.6 70 2.7 NNE 15 24 8 13 1008.6 1008.6 0.0
25/02:30pm 13.8 9.8 8.2 69 2.8 NNE 19 26 10 14 1009.1 1009.1 0.0
25/02:00pm 14.0 10.3 8.0 67 3.0 NNE 17 22 9 12 1009.3 1009.3 0.0
25/01:30pm 14.2 11.2 7.7 65 3.2 NNE 13 17 7 9 1009.9 1009.9 0.0
25/01:00pm 14.8 12.1 7.4 61 3.7 N 11 17 6 9 1010.3 1010.3 0.0
25/12:30pm 15.2 13.3 7.5 60 3.8 NNW 7 13 4 7 1010.9 1010.9 0.0
25/12:00pm 15.5 14.2 7.8 60 3.9 NNW 4 7 2 4 1011.4 1011.4 0.0
25/11:30am 14.3 12.1 8.0 66 3.1 NE 9 15 5 8 1011.9 1011.9 0.0
25/11:00am 14.5 11.5 7.5 63 3.5 ENE 13 22 7 12 1012.4 1012.4 0.0
25/10:30am 14.4 12.2 7.7 64 3.3 NNE 9 15 5 8 1012.7 1012.7 0.0
25/10:00am 14.2 12.5 7.5 64 3.3 NE 6 13 3 7 1012.8 1012.8 0.0
25/09:30am 13.1 10.1 7.8 70 2.6 ENE 13 17 7 9 1012.9 1012.9 0.0
25/09:00am 12.4 9.4 7.5 72 2.4 NE 13 20 7 11 1013.3 1013.3 0.0
25/08:30am 11.2 8.5 7.5 78 1.8 N 11 17 6 9 1013.4 1013.4 0.0
25/08:00am 11.0 9.0 7.1 77 1.9 NNW 7 9 4 5 1013.3 1013.3 0.0
25/07:30am 10.9 9.3 6.5 74 2.1 NNW 4 7 2 4 1013.1 1013.1 0.0
25/07:00am 10.6 8.5 5.8 72 2.2 NNW 6 7 3 4 1013.0 1013.0 0.0
25/06:30am 11.2 9.5 5.9 70 2.5 NNW 4 9 2 5 1012.8 1012.8 0.0
25/06:00am 11.2 8.5 5.7 69 2.5 NW 9 17 5 9 1012.4 1012.4 0.0
25/05:30am 11.1 9.7 5.6 69 2.5 NW 2 6 1 3 1012.5 1012.5 0.0
25/05:00am 11.1 7.3 5.8 70 2.5 NW 15 22 8 12 1012.5 1012.5 0.0
25/04:30am 10.8 7.3 5.6 70 2.4 NW 13 17 7 9 1012.2 1012.2 0.0
25/04:00am 11.2 6.6 5.7 69 2.5 WNW 19 24 10 13 1012.2 1012.2 0.0
25/03:30am 11.1 6.8 5.4 68 2.6 NW 17 24 9 13 1012.3 1012.3 0.0
25/03:00am 11.1 6.8 5.2 67 2.7 NW 17 24 9 13 1012.3 1012.3 0.0
25/02:30am 10.8 6.8 4.9 67 2.7 WNW 15 24 8 13 1012.3 1012.3 0.0
25/02:00am 10.9 5.9 4.8 66 2.8 WNW 20 30 11 16 1012.3 1012.3 0.0
25/01:30am 11.1 5.4 5.0 66 2.8 WNW 24 33 13 18 1012.2 1012.2 0.0
25/01:00am 10.9 5.6 5.0 67 2.7 NW 22 30 12 16 1012.4 1012.4 0.0
25/12:30am 11.1 5.8 4.8 65 2.9 NW 22 30 12 16 1012.4 1012.4 0.0
25/12:00am 10.8 6.4 4.5 65 2.8 NW 17 26 9 14 1012.5 1012.5 0.0
 
Date/Time
EST
Temp
°C
App
Temp
°C
Dew
Point
°C
Rel
Hum
%
Delta-T
°C
Wind Press
QNH
hPa
Press
MSL
hPa
Rain since
9am
mm
Dir  Spd
km/h
Gust
km/h
Spd
kts
Gust
kts
24/11:30pm 10.9 5.9 4.6 65 2.8 NW 20 28 11 15 1012.5 1012.5 0.0
24/11:00pm 11.1 6.3 4.8 65 2.9 WNW 19 26 10 14 1012.5 1012.5 0.0
24/10:30pm 11.3 7.6 4.7 64 3.0 NW 13 17 7 9 1012.5 1012.5 0.0
24/10:00pm 11.5 7.5 4.7 63 3.1 NW 15 24 8 13 1012.4 1012.4 0.0
24/09:30pm 11.1 7.4 4.6 64 2.9 NW 13 17 7 9 1012.1 1012.1 0.0
24/09:00pm 10.7 7.0 4.6 66 2.7 NW 13 19 7 10 1012.0 1012.0 0.0
24/08:30pm 11.1 6.7 4.6 64 2.9 NW 17 26 9 14 1011.9 1011.9 0.0
24/08:00pm 11.3 7.7 5.0 65 2.9 WNW 13 20 7 11 1011.8 1011.8 0.0
24/07:30pm 11.0 6.6 4.5 64 2.9 WNW 17 24 9 13 1011.6 1011.6 0.0
24/07:00pm 11.1 7.8 4.6 64 2.9 NW 11 15 6 8 1011.4 1011.4 0.0
24/06:30pm 10.9 8.0 4.8 66 2.8 NW 9 13 5 7 1010.8 1010.8 0.0
24/06:00pm 11.9 7.1 5.5 65 3.0 W 20 28 11 15 1010.4 1010.4 0.0
24/05:30pm 12.6 5.6 5.8 63 3.2 WSW 32 37 17 20 1009.6 1009.6 0.0
24/05:20pm 12.6 6.7 6.0 64 3.1 WSW 26 35 14 19 1009.4 1009.4 0.0
24/05:00pm 11.6 8.6 6.1 69 2.6 W 11 15 6 8 1009.2 1009.2 0.0
24/04:30pm 12.5 6.3 6.3 66 2.9 WSW 28 32 15 17 1008.7 1008.7 0.0
24/04:00pm 12.8 6.2 5.9 63 3.3 W 30 37 16 20 1008.3 1008.3 0.0
24/03:30pm 12.9 8.0 6.9 67 2.9 WSW 22 26 12 14 1007.7 1007.7 0.0
24/03:00pm 13.3 7.2 6.6 64 3.2 WSW 28 35 15 19 1007.4 1007.4 0.0
24/02:30pm 13.3 6.3 5.9 61 3.5 WSW 32 37 17 20 1006.9 1006.9 0.0
24/02:00pm 13.8 5.3 5.2 56 4.0 WSW 39 48 21 26 1006.5 1006.5 0.0
24/01:30pm 13.6 4.9 6.0 60 3.6 WSW 41 48 22 26 1006.5 1006.5 0.0
24/01:00pm 13.2 6.9 7.4 68 2.8 WSW 30 39 16 21 1006.3 1006.3 0.0
24/12:30pm 14.6 8.0 6.2 57 4.0 W 30 37 16 20 1006.2 1006.2 0.0
24/12:00pm 14.4 9.5 7.0 61 3.6 W 22 32 12 17 1006.3 1006.3 0.0
24/11:30am 13.2 8.3 6.8 65 3.1 WNW 22 32 12 17 1006.4 1006.4 0.0
24/11:00am 13.1 7.4 6.9 66 3.0 WNW 26 37 14 20 1006.3 1006.3 0.0
24/10:30am 12.8 9.3 8.7 76 2.0 NNW 17 30 9 16 1006.1 1006.1 0.0
24/10:00am 12.0 9.4 9.2 83 1.4 N 13 15 7 8 1005.8 1005.8 0.0
24/09:30am 12.1 9.4 9.1 82 1.5 N 13 15 7 8 1005.6 1005.6 0.0
24/09:00am 13.0 11.3 8.5 74 2.3 N 7 11 4 6 1005.4 1005.4 0.2
24/08:30am 12.3 10.8 9.0 80 1.7 N 7 11 4 6 1005.3 1005.3 0.2
24/08:00am 12.3 10.3 8.8 79 1.8 N 9 15 5 8 1005.5 1005.5 0.2
24/07:30am 12.4 9.7 9.1 80 1.7 NNE 13 17 7 9 1005.7 1005.7 0.0
24/07:00am 11.5 8.6 8.2 80 1.6 NNE 13 17 7 9 1005.8 1005.8 0.0
24/06:30am 11.7 8.8 8.2 79 1.7 NNE 13 17 7 9 1005.7 1005.7 0.0
24/06:00am 11.5 9.0 8.0 79 1.7 N 11 19 6 10 1006.1 1006.1 0.0
24/05:30am 11.2 8.6 7.9 80 1.6 N 11 19 6 10 1006.4 1006.4 0.0
24/05:00am 11.1 8.3 8.5 84 1.3 NNE 13 22 7 12 1006.5 1006.5 0.0
24/04:30am 10.4 8.3 8.2 86 1.1 NNE 9 13 5 7 1006.6 1006.6 0.0
24/04:00am 10.7 6.8 8.8 88 0.9 NE 19 22 10 12 1006.8 1006.8 0.0
24/03:30am 11.0 7.9 8.9 87 1.0 N 15 19 8 10 1006.9 1006.9 0.0
24/03:00am 10.7 9.6 8.5 86 1.1 NNW 4 7 2 4 1007.3 1007.3 0.0
24/02:30am 11.3 11.1 9.0 86 1.1 CALM 0 4 0 2 1007.6 1007.6 0.0
24/02:00am 11.2 10.6 8.8 85 1.2 NNW 2 6 1 3 1008.0 1008.0 0.0
24/01:30am 10.8 9.1 8.4 85 1.2 NNW 7 9 4 5 1008.2 1008.2 0.0
24/01:00am 10.5 8.6 7.7 83 1.4 NNW 7 9 4 5 1008.5 1008.5 0.0
24/12:30am 11.9 10.4 8.6 80 1.6 NNW 6 9 3 5 1009.0 1009.0 0.0
24/12:00am 12.6 10.2 8.7 77 2.0 NNW 11 17 6 9 1009.1 1009.1 0.0
 
Date/Time
EST
Temp
°C
App
Temp
°C
Dew
Point
°C
Rel
Hum
%
Delta-T
°C
Wind Press
QNH
hPa
Press
MSL
hPa
Rain since
9am
mm
Dir  Spd
km/h
Gust
km/h
Spd
kts
Gust
kts
23/11:30pm 12.9 10.2 8.8 76 2.1 NNW 13 17 7 9 1009.1 1009.1 0.0
23/11:00pm 13.8 10.0 9.0 73 2.4 NNW 19 26 10 14 1009.3 1009.3 0.0
23/10:30pm 14.5 10.6 9.3 71 2.7 NNW 20 28 11 15 1009.9 1009.9 0.0
23/10:00pm 14.5 10.6 9.5 72 2.6 NNW 20 28 11 15 1010.2 1010.2 0.0
23/09:30pm 14.3 10.1 9.9 75 2.3 NNW 22 30 12 16 1010.7 1010.7 0.0
23/09:00pm 14.0 9.8 9.6 75 2.3 N 22 32 12 17 1010.8 1010.8 0.0
23/08:30pm 13.8 10.6 10.0 78 2.0 N 17 24 9 13 1011.2 1011.2 0.0
23/08:00pm 11.6 10.2 9.7 88 1.0 W 7 9 4 5 1011.4 1011.4 0.0
23/07:30pm 11.8 9.7 9.9 88 1.0 W 11 15 6 8 1011.5 1011.5 0.0
23/07:00pm 11.8 10.4 9.7 87 1.1 W 7 9 4 5 1011.3 1011.3 0.0
23/06:30pm 12.9 12.0 10.6 86 1.2 W 6 7 3 4 1011.6 1011.6 0.0
23/06:00pm 13.3 12.1 10.3 82 1.6 W 7 9 4 5 1011.4 1011.4 0.0
23/05:30pm 14.6 11.1 10.2 75 2.3 W 19 26 10 14 1011.2 1011.2 0.0
23/05:00pm 15.7 12.2 10.2 70 2.9 N 19 26 10 14 1010.7 1010.7 0.0
23/04:30pm 15.8 13.3 9.7 67 3.2 N 13 19 7 10 1010.6 1010.6 0.0
23/04:00pm 16.6 13.4 10.0 65 3.5 N 17 26 9 14 1010.5 1010.5 0.0
23/03:30pm 17.1 14.7 10.0 63 3.7 N 13 20 7 11 1010.4 1010.4 0.0
23/03:00pm 18.2 14.9 10.8 62 4.0 NNE 19 32 10 17 1010.6 1010.6 0.0
23/02:30pm 17.5 13.8 10.1 62 3.9 NNE 20 32 11 17 1011.1 1011.1 0.0
23/02:00pm 17.2 12.7 9.9 62 3.8 NNE 24 33 13 18 1011.3 1011.3 0.0
23/01:30pm 17.3 13.7 10.0 62 3.9 N 19 30 10 16 1011.6 1011.6 0.0
23/01:00pm 16.7 14.8 10.5 67 3.3 N 11 17 6 9 1012.0 1012.0 0.0
23/12:30pm 17.1 14.3 10.0 63 3.7 N 15 24 8 13 1012.4 1012.4 0.0
23/12:00pm 17.3 14.9 10.2 63 3.8 NNW 13 20 7 11 1012.7 1012.7 0.0
23/11:30am 16.6 13.5 10.2 66 3.4 NNW 17 26 9 14 1013.4 1013.4 0.0
23/11:00am 17.1 14.3 10.0 63 3.7 N 15 24 8 13 1013.7 1013.7 0.0
23/10:30am 16.8 13.2 9.7 63 3.7 N 19 28 10 15 1014.0 1014.0 0.0
23/10:00am 16.7 13.9 9.9 64 3.6 NNW 15 32 8 17 1014.3 1014.3 0.0
23/09:30am 16.6 13.4 9.8 64 3.6 N 17 24 9 13 1014.3 1014.3 0.0
23/09:00am 16.6 12.9 9.3 62 3.8 NNW 19 28 10 15 1014.1 1014.1 0.0
23/08:30am 16.3 11.9 8.8 61 3.8 N 22 30 12 16 1014.0 1014.0 0.0
23/08:00am 16.4 12.2 8.4 59 4.1 N 20 32 11 17 1014.2 1014.2 0.0
23/07:30am 15.6 12.3 8.1 61 3.8 N 15 20 8 11 1014.3 1014.3 0.0
23/07:00am 15.5 12.6 8.0 61 3.8 N 13 24 7 13 1014.5 1014.5 0.0
23/06:30am 15.1 12.6 8.3 64 3.4 N 11 17 6 9 1014.5 1014.5 0.0
23/06:00am 14.9 12.8 8.4 65 3.3 NNE 9 20 5 11 1014.5 1014.5 0.0
23/05:30am 15.0 12.6 8.5 65 3.3 NNE 11 17 6 9 1014.6 1014.6 0.0
23/05:00am 14.0 11.4 9.4 74 2.4 NE 13 17 7 9 1014.7 1014.7 0.0
23/04:30am 14.3 11.4 9.7 74 2.4 NE 15 20 8 11 1014.7 1014.7 0.0
23/04:00am 13.9 11.5 9.9 77 2.1 NNE 13 15 7 8 1015.0 1015.0 0.0
23/03:30am 15.2 12.5 8.9 66 3.2 N 13 17 7 9 1015.0 1015.0 0.0
23/03:00am 15.1 13.8 11.1 77 2.1 NE 9 19 5 10 1014.9 1014.9 0.0
23/02:30am 13.6 11.5 11.0 84 1.4 NE 13 20 7 11 1015.5 1015.5 0.0
23/02:00am 13.6 11.3 10.4 81 1.7 NE 13 19 7 10 1015.6 1015.6 0.0
23/01:30am 14.1 11.2 10.9 81 1.7 ENE 17 22 9 12 1015.8 1015.8 0.0
23/01:00am 13.7 11.5 10.7 82 1.6 ENE 13 17 7 9 1016.3 1016.3 0.0
23/12:30am 13.5 11.6 10.5 82 1.6 NE 11 15 6 8 1016.5 1016.5 0.0
23/12:00am 13.9 11.2 10.5 80 1.8 ENE 15 20 8 11 1016.7 1016.7 0.0
 
Date/Time
EST
Temp
°C
App
Temp
°C
Dew
Point
°C
Rel
Hum
%
Delta-T
°C
Wind Press
QNH
hPa
Press
MSL
hPa
Rain since
9am
mm
Dir  Spd
km/h
Gust
km/h
Spd
kts
Gust
kts
22/11:30pm 14.3 11.9 9.9 75 2.3 NNE 13 17 7 9 1016.9 1016.9 0.0
22/11:00pm 15.5 13.4 9.6 68 3.1 N 11 17 6 9 1016.8 1016.8 0.0
22/10:30pm 15.4 12.7 8.9 65 3.3 N 13 17 7 9 1016.9 1016.9 0.0
22/10:00pm 15.7 13.0 8.9 64 3.5 N 13 17 7 9 1017.2 1017.2 0.0
22/09:30pm 15.7 12.2 8.7 63 3.6 NNW 17 20 9 11 1017.0 1017.0 0.0
22/09:00pm 15.8 11.7 8.8 63 3.6 NNW 20 26 11 14 1017.0 1017.0 0.0
22/08:30pm 15.7 11.8 8.7 63 3.6 NNW 19 24 10 13 1016.8 1016.8 0.0
22/08:00pm 15.7 11.7 8.9 64 3.5 NNW 20 24 11 13 1017.0 1017.0 0.0
22/07:30pm 15.9 12.2 9.3 65 3.4 NNW 19 24 10 13 1016.8 1016.8 0.0
22/07:00pm 16.0 12.3 10.1 68 3.1 NNW 20 26 11 14 1016.9 1016.9 0.0
22/06:30pm 15.7 12.1 10.7 72 2.7 NNW 20 28 11 15 1016.8 1016.8 0.0
22/06:00pm 14.9 12.7 10.7 76 2.2 NE 13 20 7 11 1016.7 1016.7 0.0
22/05:30pm 14.8 11.4 10.6 76 2.2 NE 19 22 10 12 1016.5 1016.5 0.0
22/05:00pm 14.9 11.9 10.7 76 2.2 W 17 20 9 11 1016.3 1016.3 0.0
22/04:30pm 15.1 12.4 10.5 74 2.4 W 15 19 8 10 1016.3 1016.3 0.0
22/04:00pm 16.1 14.2 10.4 69 3.0 W 11 17 6 9 1016.3 1016.3 0.0
22/03:30pm 17.5 16.6 10.6 64 3.7 W 6 9 3 5 1016.3 1016.3 0.0

Latest Capital City Observations: Canberra | Sydney | Melbourne | Brisbane | Adelaide | Perth | Hobart | Darwin

Other Formats:

Comma delimited format used in spreadsheet applications
http://www.bom.gov.au/fwo/IDT60901/IDT60901.94951.axf

JavaScript Object Notation format (JSON) in row-major order
http://www.bom.gov.au/fwo/IDT60901/IDT60901.94951.json